Time;durP1;ratioP1;P1;durP2;ratioP2;P2;SDS_P1;SDS_P2;PMS_P1;PMS_P2;Temp;Humidity;BMP_temperature;BMP_pressure;BME280_temperature;BME280_humidity;BME280_pressure;Samples;Min_cycle;Max_cycle;Signal;HPM_P1;HPM_P2
2021/03/28 00:00:19;;;;;;;4.78;2.00;;;9.90;69.80;;;;;;5091387;28;19920;-82
2021/03/28 00:03:01;;;;;;;3.40;1.88;;;9.90;69.70;;;;;;5091179;28;20030;-82
2021/03/28 00:05:30;;;;;;;2.67;1.83;;;9.90;69.90;;;;;;5083526;28;20024;-83
2021/03/28 00:08:22;;;;;;;2.78;1.67;;;9.90;69.90;;;;;;5086153;28;20042;-83
2021/03/28 00:10:51;;;;;;;1.75;1.45;;;9.80;69.90;;;;;;5086517;28;20096;-83
2021/03/28 00:13:26;;;;;;;2.75;1.70;;;9.90;69.90;;;;;;5081716;28;20017;-83
2021/03/28 00:15:55;;;;;;;2.83;1.80;;;9.90;70.00;;;;;;5111020;28;20020;-82
2021/03/28 00:18:26;;;;;;;2.15;1.63;;;9.90;69.90;;;;;;5090767;28;20032;-82
2021/03/28 00:21:13;;;;;;;3.88;2.03;;;9.90;70.00;;;;;;5086564;28;20024;-83
2021/03/28 00:23:47;;;;;;;3.20;1.63;;;9.90;70.00;;;;;;5083042;28;20479;-83
2021/03/28 00:27:01;;;;;;;2.93;1.70;;;9.90;70.00;;;;;;5091166;28;20016;-83
2021/03/28 00:29:27;;;;;;;4.10;2.20;;;9.90;70.10;;;;;;5052839;28;20306;-82
2021/03/28 00:32:00;;;;;;;2.78;1.73;;;9.90;69.90;;;;;;5089670;28;20040;-83
2021/03/28 00:34:29;;;;;;;3.53;1.85;;;9.90;70.00;;;;;;5078754;28;20028;-82
2021/03/28 00:37:07;;;;;;;3.83;2.17;;;9.90;70.00;;;;;;5090812;28;20041;-83
2021/03/28 00:39:38;;;;;;;2.50;1.70;;;9.90;70.10;;;;;;5078129;28;20039;-83
2021/03/28 00:42:19;;;;;;;2.35;1.75;;;9.90;70.00;;;;;;5094788;28;20050;-83
2021/03/28 00:45:11;;;;;;;3.45;1.95;;;9.80;70.00;;;;;;5089797;28;20024;-83
2021/03/28 00:47:40;;;;;;;2.80;1.73;;;9.90;70.20;;;;;;5067923;28;20056;-82
2021/03/28 00:50:34;;;;;;;3.10;1.85;;;9.80;70.00;;;;;;5077751;28;20020;-82
2021/03/28 00:53:04;;;;;;;3.03;1.80;;;9.80;70.20;;;;;;5070979;28;20506;-82
2021/03/28 00:55:37;;;;;;;3.00;1.83;;;9.80;70.00;;;;;;5094657;28;20418;-83
2021/03/28 00:58:33;;;;;;;3.25;1.80;;;9.80;70.00;;;;;;5094626;28;20202;-82
2021/03/28 01:01:22;;;;;;;4.72;2.10;;;9.90;70.10;;;;;;5058579;28;20607;-83
2021/03/28 01:04:33;;;;;;;2.28;1.50;;;9.80;70.00;;;;;;5093977;28;20031;-83
2021/03/28 01:07:18;;;;;;;2.78;1.83;;;9.80;70.20;;;;;;5076615;28;20020;-82
2021/03/28 01:10:16;;;;;;;3.75;1.90;;;9.80;70.10;;;;;;5074317;28;20381;-83
2021/03/28 01:12:42;;;;;;;2.85;1.80;;;9.80;70.20;;;;;;5094502;28;20099;-83
2021/03/28 01:15:34;;;;;;;3.45;1.80;;;9.80;70.10;;;;;;5085077;28;20073;-83
2021/03/28 01:18:04;;;;;;;4.78;1.95;;;9.80;70.20;;;;;;5081822;28;20067;-82
2021/03/28 01:20:30;;;;;;;3.50;2.10;;;9.80;70.20;;;;;;5077087;28;20506;-83
2021/03/28 01:23:05;;;;;;;3.28;2.20;;;9.80;70.20;;;;;;5089624;28;20067;-82
2021/03/28 01:25:41;;;;;;;2.63;1.80;;;9.80;70.20;;;;;;5093627;28;20028;-83
2021/03/28 01:28:28;;;;;;;3.10;2.13;;;9.80;70.20;;;;;;5083632;28;20036;-82
2021/03/28 01:31:29;;;;;;;3.55;1.90;;;9.80;70.30;;;;;;5089064;28;20032;-82
2021/03/28 01:34:04;;;;;;;2.45;1.77;;;9.80;70.20;;;;;;5065942;28;20060;-82
2021/03/28 01:37:01;;;;;;;3.78;1.85;;;9.80;70.20;;;;;;5088520;28;20031;-83
2021/03/28 01:39:49;;;;;;;3.53;2.00;;;9.80;70.20;;;;;;5060274;28;20029;-83
2021/03/28 01:42:27;;;;;;;2.33;1.60;;;9.80;70.30;;;;;;5074119;28;20416;-82
2021/03/28 01:45:00;;;;;;;3.78;1.92;;;9.80;70.20;;;;;;5091643;28;20476;-81
2021/03/28 01:47:54;;;;;;;3.20;1.98;;;9.80;70.20;;;;;;5093799;28;20044;-82
2021/03/28 01:50:27;;;;;;;2.95;1.95;;;9.80;70.30;;;;;;5125056;27;20097;-82
2021/03/28 01:52:56;;;;;;;2.88;2.00;;;9.80;70.30;;;;;;5076975;28;20129;-84
2021/03/28 01:55:24;;;;;;;2.67;1.90;;;9.80;70.30;;;;;;5094321;28;20020;-83
2021/03/28 01:58:16;;;;;;;2.97;1.98;;;9.70;70.30;;;;;;5076108;28;20040;-83
2021/03/28 02:01:01;;;;;;;4.07;2.17;;;9.80;70.30;;;;;;5107722;28;20096;-82
2021/03/28 02:03:26;;;;;;;4.03;2.03;;;9.70;70.30;;;;;;5076763;28;20035;-82
2021/03/28 02:06:10;;;;;;;2.97;1.90;;;9.70;70.20;;;;;;5085321;28;20027;-83
2021/03/28 02:08:58;;;;;;;3.00;1.88;;;9.70;70.30;;;;;;5081311;28;20055;-83
2021/03/28 02:11:46;;;;;;;2.75;1.80;;;9.70;70.30;;;;;;5081645;28;20111;-82
2021/03/28 02:14:40;;;;;;;2.35;1.67;;;9.70;70.30;;;;;;5078725;28;20016;-82
2021/03/28 02:17:14;;;;;;;2.58;1.75;;;9.70;70.40;;;;;;5092773;28;20043;-82
2021/03/28 02:19:59;;;;;;;3.60;1.88;;;9.70;70.30;;;;;;5079508;28;20023;-82
2021/03/28 02:22:48;;;;;;;2.67;1.98;;;9.70;71.00;;;;;;5078028;28;20029;-83
2021/03/28 02:25:17;;;;;;;3.75;2.03;;;9.70;70.30;;;;;;5096400;28;20377;-82
2021/03/28 02:27:46;;;;;;;3.95;1.95;;;9.70;70.30;;;;;;5090296;28;20063;-82
2021/03/28 02:30:17;;;;;;;2.95;1.67;;;9.60;70.30;;;;;;5073819;28;20032;-83
2021/03/28 02:33:11;;;;;;;2.47;1.73;;;9.70;70.40;;;;;;5093881;28;20031;-82
2021/03/28 02:35:45;;;;;;;2.97;1.77;;;9.70;70.50;;;;;;5084507;28;20028;-83
2021/03/28 02:38:48;;;;;;;4.20;1.98;;;9.70;70.40;;;;;;5093048;28;20051;-82
2021/03/28 02:41:26;;;;;;;2.85;1.67;;;9.70;70.40;;;;;;5088351;28;20472;-82
2021/03/28 02:44:26;;;;;;;4.15;1.75;;;9.60;70.30;;;;;;5092530;28;20032;-82
2021/03/28 02:47:04;;;;;;;2.47;1.70;;;9.60;70.40;;;;;;5077810;28;20028;-82
2021/03/28 02:50:24;;;;;;;3.28;1.75;;;9.60;70.40;;;;;;5086794;28;20476;-81
2021/03/28 02:53:05;;;;;;;2.63;1.80;;;9.60;70.50;;;;;;5032528;28;20033;-83
2021/03/28 02:55:53;;;;;;;2.22;1.67;;;9.60;70.40;;;;;;5056806;28;20028;-81
2021/03/28 02:58:41;;;;;;;1.85;1.73;;;9.60;70.50;;;;;;5087528;28;20165;-82
2021/03/28 03:01:45;;;;;;;2.22;1.60;;;9.60;70.50;;;;;;5075271;28;20472;-82
2021/03/28 03:04:47;;;;;;;3.10;1.85;;;9.60;70.50;;;;;;5064173;28;20028;-82
2021/03/28 03:07:38;;;;;;;3.08;1.52;;;9.60;70.60;;;;;;5085675;28;20435;-82
2021/03/28 03:10:23;;;;;;;2.80;1.92;;;9.60;70.50;;;;;;5084216;28;20036;-82
2021/03/28 03:13:33;;;;;;;3.08;1.90;;;9.60;70.50;;;;;;5086850;28;20020;-82
2021/03/28 03:16:19;;;;;;;3.35;1.70;;;9.60;70.70;;;;;;5084556;28;20032;-82
2021/03/28 03:19:04;;;;;;;3.35;1.90;;;9.60;70.60;;;;;;5086581;28;20028;-84
2021/03/28 03:21:38;;;;;;;3.58;1.55;;;9.60;70.50;;;;;;5079086;28;20119;-83
2021/03/28 03:24:39;;;;;;;2.70;1.70;;;9.60;70.60;;;;;;5085876;28;20047;-83
2021/03/28 03:27:17;;;;;;;3.80;1.70;;;9.60;70.70;;;;;;5084606;28;20035;-83
2021/03/28 03:30:28;;;;;;;2.95;1.60;;;9.60;70.60;;;;;;5078174;28;20153;-82
2021/03/28 03:33:18;;;;;;;2.95;1.70;;;9.60;70.70;;;;;;5059194;28;20075;-83
2021/03/28 03:36:12;;;;;;;2.83;1.55;;;9.60;70.60;;;;;;5089887;28;20028;-82
2021/03/28 03:39:22;;;;;;;2.15;1.30;;;9.60;70.60;;;;;;5071766;28;20529;-83
2021/03/28 03:41:57;;;;;;;2.45;1.70;;;9.60;70.80;;;;;;5086211;28;20066;-83
2021/03/28 03:44:23;;;;;;;2.55;1.50;;;9.60;70.50;;;;;;5087094;28;20026;-83
2021/03/28 03:47:06;;;;;;;2.25;1.67;;;9.60;70.60;;;;;;5085686;28;20415;-83
2021/03/28 03:49:41;;;;;;;2.17;1.60;;;9.60;70.70;;;;;;5085460;28;20056;-83
2021/03/28 03:52:13;;;;;;;;;;;9.60;70.70;;;;;;5091871;28;20028;-83
2021/03/28 03:54:50;;;;;;;1.75;1.30;;;9.60;70.70;;;;;;5080928;28;19915;-83
2021/03/28 03:57:25;;;;;;;2.08;1.63;;;9.60;70.50;;;;;;5077581;28;20032;-83
2021/03/28 04:00:12;;;;;;;2.13;1.48;;;9.60;70.70;;;;;;5086065;28;20028;-83
2021/03/28 04:02:49;;;;;;;3.63;1.60;;;9.50;70.70;;;;;;5080013;28;20051;-82
2021/03/28 04:05:41;;;;;;;1.52;1.40;;;9.50;70.70;;;;;;5092161;28;20508;-82
2021/03/28 04:08:13;;;;;;;3.58;1.80;;;9.50;70.80;;;;;;5098474;28;20034;-82
2021/03/28 04:10:46;;;;;;;2.00;1.40;;;9.60;70.70;;;;;;5076150;28;20032;-83
2021/03/28 04:13:33;;;;;;;3.78;1.85;;;9.50;70.70;;;;;;5089692;28;20051;-83
2021/03/28 04:16:21;;;;;;;3.53;1.50;;;9.50;70.70;;;;;;5104277;28;20035;-82
2021/03/28 04:19:08;;;;;;;2.83;1.70;;;9.50;70.80;;;;;;5104229;28;20041;-82
2021/03/28 04:22:05;;;;;;;1.77;1.40;;;9.50;70.70;;;;;;5090561;28;20032;-82
2021/03/28 04:24:36;;;;;;;1.67;1.40;;;9.50;70.80;;;;;;5096843;28;20020;-82
2021/03/28 04:27:11;;;;;;;2.25;1.42;;;9.60;70.80;;;;;;5099044;28;20032;-82
2021/03/28 04:29:44;;;;;;;3.10;1.50;;;9.50;70.80;;;;;;5090944;28;20032;-83
2021/03/28 04:32:21;;;;;;;2.30;1.48;;;9.50;70.80;;;;;;5085834;28;20047;-83
2021/03/28 04:35:05;;;;;;;3.38;1.63;;;9.50;70.80;;;;;;5102537;28;20051;-83
2021/03/28 04:38:21;;;;;;;3.05;1.60;;;9.50;70.80;;;;;;5104263;28;20020;-82
2021/03/28 04:41:17;;;;;;;1.50;1.40;;;9.50;70.90;;;;;;5034042;28;20025;-82
2021/03/28 04:44:20;;;;;;;3.15;1.40;;;9.50;70.80;;;;;;5032972;28;20029;-83
2021/03/28 04:47:23;;;;;;;2.58;1.60;;;9.50;70.80;;;;;;5092533;28;20089;-82
2021/03/28 04:50:08;;;;;;;1.83;1.55;;;9.50;70.90;;;;;;5092935;28;20093;-82
2021/03/28 04:52:40;;;;;;;;;;;9.50;70.70;;;;;;5111964;28;20032;-83
2021/03/28 04:55:24;;;;;;;1.70;1.25;;;9.50;70.90;;;;;;5093165;28;19965;-82
2021/03/28 04:58:21;;;;;;;2.33;1.60;;;9.50;70.80;;;;;;5088376;28;20024;-83
2021/03/28 05:01:01;;;;;;;1.55;1.40;;;9.50;70.90;;;;;;5058647;28;20435;-83
2021/03/28 05:04:01;;;;;;;3.42;2.08;;;9.50;70.80;;;;;;5082029;28;20028;-83
2021/03/28 05:07:05;;;;;;;2.72;1.60;;;9.50;71.00;;;;;;5094050;28;20020;-83
2021/03/28 05:10:01;;;;;;;2.70;1.60;;;9.50;71.00;;;;;;5058657;28;20040;-83
2021/03/28 05:12:45;;;;;;;2.58;1.52;;;9.50;71.00;;;;;;5077864;28;20020;-83
2021/03/28 05:15:39;;;;;;;2.17;1.55;;;9.50;70.90;;;;;;5082278;28;20040;-83
2021/03/28 05:18:23;;;;;;;2.20;1.50;;;9.50;71.00;;;;;;5099727;28;20055;-82
2021/03/28 05:20:57;;;;;;;2.60;1.30;;;9.50;70.90;;;;;;5097332;28;20032;-82
2021/03/28 05:23:31;;;;;;;2.55;1.75;;;9.50;71.00;;;;;;5078255;28;20115;-82
2021/03/28 05:26:16;;;;;;;2.72;1.50;;;9.50;71.00;;;;;;5065132;28;20052;-82
2021/03/28 05:28:44;;;;;;;3.30;1.80;;;9.50;70.90;;;;;;5099759;28;20111;-83
2021/03/28 05:31:19;;;;;;;3.00;1.60;;;9.50;70.90;;;;;;5090960;28;20070;-82
2021/03/28 05:33:54;;;;;;;3.58;1.75;;;9.50;71.00;;;;;;5088772;28;20020;-82
2021/03/28 05:36:46;;;;;;;2.03;1.48;;;9.50;71.00;;;;;;5095903;28;20431;-82
2021/03/28 05:39:20;;;;;;;3.05;1.70;;;9.50;71.10;;;;;;5093979;28;20027;-83
2021/03/28 05:42:02;;;;;;;1.98;1.50;;;9.50;70.90;;;;;;5084954;28;20039;-82
2021/03/28 05:45:02;;;;;;;2.42;1.63;;;9.60;71.00;;;;;;5092923;28;20468;-82
2021/03/28 05:48:22;;;;;;;2.63;1.50;;;9.50;71.00;;;;;;5076316;28;20030;-82
2021/03/28 05:51:06;;;;;;;2.70;1.65;;;9.60;71.10;;;;;;5020883;28;20041;-82
2021/03/28 05:53:49;;;;;;;2.80;1.50;;;9.60;71.00;;;;;;5025955;28;20037;-82
2021/03/28 05:57:03;;;;;;;2.28;1.40;;;9.60;71.00;;;;;;5045467;28;20071;-83
2021/03/28 05:59:42;;;;;;;4.80;1.90;;;9.50;71.10;;;;;;5056617;28;20025;-79
2021/03/28 06:02:40;;;;;;;2.95;1.63;;;9.60;71.10;;;;;;5030836;28;20029;-79
2021/03/28 06:05:06;;;;;;;1.83;1.48;;;9.60;71.10;;;;;;5030434;28;20551;-79
2021/03/28 06:07:41;;;;;;;2.30;1.40;;;9.60;71.00;;;;;;5032078;28;20037;-79
2021/03/28 06:10:37;;;;;;;2.33;1.48;;;9.60;71.10;;;;;;5035235;28;20491;-79
2021/03/28 06:13:22;;;;;;;3.28;1.52;;;9.60;71.20;;;;;;5040710;28;20025;-79
2021/03/28 06:16:06;;;;;;;3.53;1.58;;;9.60;71.00;;;;;;5038055;28;20508;-79
2021/03/28 06:19:03;;;;;;;2.58;1.65;;;9.60;71.00;;;;;;5035386;28;20036;-79
2021/03/28 06:21:56;;;;;;;2.55;1.40;;;9.60;71.20;;;;;;5036169;28;20453;-79
2021/03/28 06:24:55;;;;;;;2.97;1.48;;;9.60;71.10;;;;;;5031605;28;20112;-79
2021/03/28 06:27:27;;;;;;;2.35;1.50;;;9.60;71.20;;;;;;5044314;28;20024;-79
2021/03/28 06:30:31;;;;;;;2.17;1.45;;;9.60;71.10;;;;;;5026352;28;20033;-78
2021/03/28 06:33:29;;;;;;;3.85;1.73;;;9.60;71.30;;;;;;5032046;28;20029;-79
2021/03/28 06:36:13;;;;;;;2.22;1.40;;;9.60;71.20;;;;;;5043708;28;20025;-78
2021/03/28 06:39:21;;;;;;;1.70;1.30;;;9.70;71.20;;;;;;5046547;28;20033;-79
2021/03/28 06:41:53;;;;;;;2.17;1.33;;;9.70;71.30;;;;;;5040301;28;20066;-79
2021/03/28 06:44:40;;;;;;;1.98;1.38;;;9.70;71.10;;;;;;5045675;28;20033;-79
2021/03/28 06:47:29;;;;;;;1.92;1.48;;;9.70;71.30;;;;;;5037374;28;20108;-79
2021/03/28 06:50:13;;;;;;;3.05;1.50;;;9.70;71.20;;;;;;5059796;28;20115;-79
2021/03/28 06:53:05;;;;;;;2.75;1.63;;;9.70;71.20;;;;;;5091642;28;20092;-79
2021/03/28 06:55:41;;;;;;;3.13;1.63;;;9.70;71.30;;;;;;5062311;28;20059;-79
2021/03/28 06:58:44;;;;;;;2.00;1.30;;;9.80;71.30;;;;;;5103938;28;20031;-78
2021/03/28 07:01:45;;;;;;;2.67;1.60;;;9.70;71.30;;;;;;5075721;28;20020;-79
2021/03/28 07:04:13;;;;;;;2.25;1.50;;;9.80;71.30;;;;;;5080827;28;20028;-78
2021/03/28 07:07:06;;;;;;;2.30;1.42;;;9.80;71.20;;;;;;5074222;28;20024;-78
2021/03/28 07:10:07;;;;;;;2.78;1.40;;;9.80;71.30;;;;;;5090198;28;20115;-78
2021/03/28 07:13:27;;;;;;;2.75;1.58;;;9.80;71.40;;;;;;5104045;28;20036;-78
2021/03/28 07:16:17;;;;;;;2.28;1.55;;;9.90;71.40;;;;;;5090851;28;20020;-78
2021/03/28 07:18:52;;;;;;;2.83;2.03;;;9.90;71.30;;;;;;5074141;28;20569;-78
2021/03/28 07:21:30;;;;;;;1.73;1.60;;;9.90;71.30;;;;;;5097526;28;20072;-78
2021/03/28 07:24:18;;;;;;;3.53;1.80;;;9.90;71.30;;;;;;5089931;28;20024;-79
2021/03/28 07:27:16;;;;;;;2.85;1.58;;;9.90;71.30;;;;;;5105284;28;20469;-78
2021/03/28 07:30:02;;;;;;;2.50;1.60;;;10.00;71.40;;;;;;5085764;28;20071;-79
2021/03/28 07:32:31;;;;;;;1.98;1.40;;;10.00;71.40;;;;;;5098792;28;20031;-78
2021/03/28 07:35:15;;;;;;;2.33;1.70;;;10.00;71.30;;;;;;5073240;28;20024;-79
2021/03/28 07:38:18;;;;;;;2.92;1.67;;;10.00;71.40;;;;;;5090195;28;20035;-78
2021/03/28 07:41:08;;;;;;;2.88;1.52;;;10.10;71.50;;;;;;5083833;28;20020;-78
2021/03/28 07:43:37;;;;;;;1.60;1.35;;;10.10;71.40;;;;;;5082196;28;20036;-79
2021/03/28 07:46:24;;;;;;;2.03;1.38;;;10.10;71.30;;;;;;5090212;28;20053;-78
2021/03/28 07:49:11;;;;;;;1.58;1.48;;;10.10;71.40;;;;;;5089270;28;20091;-78
2021/03/28 07:51:43;;;;;;;2.95;1.58;;;10.10;71.30;;;;;;5073897;28;20036;-78
2021/03/28 07:54:25;;;;;;;2.67;1.55;;;10.20;71.30;;;;;;5073702;28;20035;-78
2021/03/28 07:57:24;;;;;;;2.33;1.65;;;10.20;71.30;;;;;;5073440;28;20028;-78
2021/03/28 07:59:58;;;;;;;3.50;2.05;;;10.20;71.30;;;;;;5090355;28;20120;-78
2021/03/28 08:02:59;;;;;;;2.75;1.48;;;10.30;71.90;;;;;;5077021;28;20016;-78
2021/03/28 08:06:06;;;;;;;2.78;1.60;;;10.30;71.40;;;;;;5005957;28;20028;-78
2021/03/28 08:09:09;;;;;;;4.15;1.80;;;10.30;71.40;;;;;;5087199;28;20760;-78
2021/03/28 08:11:54;;;;;;;2.88;1.38;;;10.30;71.30;;;;;;5079513;28;20091;-77
2021/03/28 08:14:55;;;;;;;2.38;1.45;;;10.40;71.30;;;;;;5074087;28;20020;-78
2021/03/28 08:17:24;;;;;;;3.10;1.60;;;10.40;71.30;;;;;;5073825;28;20031;-78
2021/03/28 08:20:20;;;;;;;3.13;1.35;;;10.40;71.20;;;;;;5090292;28;20031;-77
2021/03/28 08:23:18;;;;;;;3.25;1.73;;;10.50;71.40;;;;;;5091416;28;20519;-78
2021/03/28 08:26:24;;;;;;;2.50;1.52;;;10.50;71.30;;;;;;5086005;28;20024;-78
2021/03/28 08:29:28;;;;;;;2.50;1.65;;;10.60;71.30;;;;;;5087900;28;20036;-79
2021/03/28 08:32:15;;;;;;;3.72;1.60;;;10.60;71.20;;;;;;5086966;28;20020;-79
2021/03/28 08:35:01;;;;;;;3.47;1.70;;;10.60;71.20;;;;;;5090076;28;20027;-81
2021/03/28 08:37:56;;;;;;;2.40;1.60;;;10.70;71.20;;;;;;5055445;28;20028;-80
2021/03/28 08:40:56;;;;;;;3.90;1.83;;;10.70;71.30;;;;;;5089198;28;20047;-79
2021/03/28 08:43:52;;;;;;;2.60;1.70;;;10.70;71.20;;;;;;5069870;28;20028;-79
2021/03/28 08:46:49;;;;;;;2.97;1.40;;;10.80;71.20;;;;;;5076934;28;20025;-80
2021/03/28 08:49:42;;;;;;;4.00;1.90;;;10.80;71.20;;;;;;5110541;28;20051;-80
2021/03/28 08:52:10;;;;;;;2.60;1.67;;;10.90;71.10;;;;;;5076249;28;20028;-78
2021/03/28 08:55:10;;;;;;;2.25;1.60;;;10.90;71.10;;;;;;5076296;28;20066;-80
2021/03/28 08:57:37;;;;;;;2.88;1.83;;;10.90;71.20;;;;;;5093321;28;20043;-78
2021/03/28 09:00:33;;;;;;;2.78;1.70;;;11.00;71.10;;;;;;5076103;28;20461;-79
2021/03/28 09:03:17;;;;;;;;;;;11.00;71.20;;;;;;5094095;28;20031;-78
2021/03/28 09:05:50;;;;;;;2.92;1.45;;;11.10;71.00;;;;;;5092894;28;19912;-79
2021/03/28 09:08:38;;;;;;;3.08;1.90;;;11.10;70.80;;;;;;5093798;28;20024;-79
2021/03/28 09:11:43;;;;;;;2.67;1.65;;;11.20;71.10;;;;;;5093417;28;20055;-78
2021/03/28 09:14:30;;;;;;;2.53;1.58;;;11.20;71.10;;;;;;5090086;28;20043;-80
2021/03/28 09:17:07;;;;;;;3.13;1.70;;;11.30;71.00;;;;;;5093745;28;20499;-80
2021/03/28 09:20:20;;;;;;;3.60;1.65;;;11.30;71.00;;;;;;5092774;28;20491;-80
2021/03/28 09:23:17;;;;;;;2.95;1.67;;;11.40;71.00;;;;;;5039311;28;20036;-77
2021/03/28 09:26:07;;;;;;;2.88;2.00;;;11.50;71.00;;;;;;5087469;28;20092;-80
2021/03/28 09:28:52;;;;;;;2.45;1.50;;;11.50;70.90;;;;;;5076422;28;20055;-77
2021/03/28 09:31:57;;;;;;;2.77;1.67;;;11.60;70.90;;;;;;5092549;28;20032;-78
2021/03/28 09:34:49;;;;;;;3.38;1.83;;;11.60;70.80;;;;;;5094264;28;20043;-77
2021/03/28 09:37:33;;;;;;;2.80;1.70;;;11.70;70.80;;;;;;5103281;28;20024;-79
2021/03/28 09:40:08;;;;;;;2.17;1.65;;;11.80;70.70;;;;;;5094478;28;20024;-78
2021/03/28 09:42:53;;;;;;;3.50;1.65;;;11.90;70.70;;;;;;5089669;28;20028;-78
2021/03/28 09:45:40;;;;;;;3.20;1.70;;;11.90;70.60;;;;;;5090911;28;20020;-77
2021/03/28 09:48:37;;;;;;;2.85;1.50;;;12.00;70.90;;;;;;5074777;28;20047;-78
2021/03/28 09:51:24;;;;;;;2.92;1.67;;;12.10;70.70;;;;;;5069353;28;20044;-78
2021/03/28 09:54:27;;;;;;;3.25;1.65;;;12.20;70.60;;;;;;5082235;28;20178;-79
2021/03/28 09:56:59;;;;;;;1.50;1.40;;;12.20;70.60;;;;;;5082453;28;20024;-79
2021/03/28 09:59:47;;;;;;;1.92;1.38;;;12.30;70.50;;;;;;5078792;28;20050;-79
2021/03/28 10:02:31;;;;;;;4.05;1.60;;;12.30;70.60;;;;;;5083402;28;20085;-78
2021/03/28 10:05:11;;;;;;;2.85;1.73;;;12.40;70.60;;;;;;5069511;28;20028;-78
2021/03/28 10:07:49;;;;;;;2.72;1.70;;;12.50;70.60;;;;;;5079484;28;20044;-77
2021/03/28 10:10:37;;;;;;;3.35;1.63;;;12.50;70.50;;;;;;5080716;28;20027;-78
2021/03/28 10:13:05;;;;;;;3.10;1.73;;;12.60;70.60;;;;;;5081179;28;20023;-80
2021/03/28 10:15:37;;;;;;;2.58;1.40;;;12.70;70.40;;;;;;5074732;28;20109;-80
2021/03/28 10:18:05;;;;;;;6.47;1.63;;;12.70;70.40;;;;;;5075272;28;20032;-78
2021/03/28 10:20:58;;;;;;;3.15;1.52;;;12.80;70.40;;;;;;5076523;28;20076;-78
2021/03/28 10:23:50;;;;;;;2.50;1.50;;;12.90;70.40;;;;;;5062032;28;20126;-78
2021/03/28 10:26:22;;;;;;;3.15;1.70;;;12.90;70.40;;;;;;5091434;28;20093;-78
2021/03/28 10:28:54;;;;;;;3.17;1.70;;;13.00;70.30;;;;;;5092047;28;20044;-78
2021/03/28 10:31:23;;;;;;;2.08;1.50;;;13.10;70.40;;;;;;5075273;28;20020;-79
2021/03/28 10:34:06;;;;;;;3.10;1.55;;;13.10;70.30;;;;;;5075295;28;20117;-79
2021/03/28 10:36:35;;;;;;;2.05;1.40;;;13.10;70.20;;;;;;5110195;28;20039;-79
2021/03/28 10:39:39;;;;;;;2.13;1.40;;;13.20;70.20;;;;;;5092535;28;20506;-78
2021/03/28 10:42:21;;;;;;;1.65;1.40;;;13.30;70.30;;;;;;5081504;28;20388;-78
2021/03/28 10:45:17;;;;;;;2.60;1.50;;;13.40;70.10;;;;;;5093399;28;20031;-79
2021/03/28 10:48:01;;;;;;;;;;;13.40;70.10;;;;;;5092595;28;20423;-78
2021/03/28 10:50:36;;;;;;;1.52;1.38;;;13.50;69.90;;;;;;5126230;27;19925;-78
2021/03/28 10:53:08;;;;;;;3.75;1.40;;;13.60;69.90;;;;;;5090753;28;20024;-84
2021/03/28 10:56:24;;;;;;;1.60;1.10;;;13.60;70.00;;;;;;5093319;28;20020;-82
2021/03/28 10:59:26;;;;;;;2.65;1.35;;;13.60;69.90;;;;;;5028894;28;20041;-81
2021/03/28 11:02:13;;;;;;;2.45;1.65;;;13.70;69.80;;;;;;5031687;28;20175;-82
2021/03/28 11:04:44;;;;;;;4.28;1.73;;;13.80;69.90;;;;;;5082832;28;20039;-82
2021/03/28 11:07:36;;;;;;;2.15;1.40;;;13.90;69.90;;;;;;5086854;28;20115;-83
2021/03/28 11:10:16;;;;;;;2.47;1.40;;;13.90;69.80;;;;;;5083775;28;20481;-83
2021/03/28 11:12:47;;;;;;;2.00;1.27;;;14.00;69.80;;;;;;5074681;28;20456;-80
2021/03/28 11:15:38;;;;;;;2.60;1.48;;;14.00;69.90;;;;;;5069737;28;20087;-81
2021/03/28 11:18:35;;;;;;;3.22;1.55;;;14.10;69.90;;;;;;5078537;28;20028;-81
2021/03/28 11:21:09;;;;;;;2.92;1.60;;;14.10;69.80;;;;;;5091459;28;20057;-81
2021/03/28 11:24:01;;;;;;;2.47;1.38;;;14.20;69.70;;;;;;5075383;28;20465;-82
2021/03/28 11:26:33;;;;;;;2.33;1.50;;;14.20;69.70;;;;;;5073569;28;20325;-81
2021/03/28 11:29:17;;;;;;;3.17;1.25;;;14.30;69.80;;;;;;5061351;28;20036;-81
2021/03/28 11:32:21;;;;;;;2.63;1.45;;;14.30;69.80;;;;;;5083599;28;20145;-81
2021/03/28 11:35:04;;;;;;;5.40;1.50;;;14.40;70.00;;;;;;5107490;28;20028;-81
2021/03/28 11:38:09;;;;;;;2.78;1.40;;;14.40;69.90;;;;;;5078302;28;20024;-81
2021/03/28 11:40:38;;;;;;;3.03;1.52;;;14.50;70.10;;;;;;5082044;28;20024;-81
2021/03/28 11:43:03;;;;;;;1.85;1.30;;;14.50;70.00;;;;;;5078203;28;20024;-82
2021/03/28 11:45:46;;;;;;;4.07;1.58;;;14.50;70.00;;;;;;5065777;28;20030;-81
2021/03/28 11:48:35;;;;;;;2.80;1.48;;;14.60;70.20;;;;;;5088560;28;20367;-82
2021/03/28 11:51:16;;;;;;;2.15;1.30;;;14.60;70.20;;;;;;5090511;28;20445;-81
2021/03/28 11:53:42;;;;;;;1.67;1.30;;;14.60;70.20;;;;;;5061560;28;20059;-82
2021/03/28 11:56:49;;;;;;;3.60;1.60;;;14.60;70.10;;;;;;5092296;28;20527;-81
2021/03/28 11:59:19;;;;;;;3.45;1.30;;;14.60;70.30;;;;;;5038722;28;20041;-82
2021/03/28 12:04:40;;;;;;;3.47;1.42;;;14.70;70.30;;;;;;5092812;28;20035;-82
2021/03/28 12:07:25;;;;;;;2.08;1.35;;;14.70;70.40;;;;;;5090693;28;20028;-81
2021/03/28 12:10:01;;;;;;;2.05;1.20;;;14.70;70.20;;;;;;5074804;28;20039;-81
2021/03/28 12:12:33;;;;;;;3.38;1.40;;;14.70;70.20;;;;;;5071036;28;20033;-82
2021/03/28 12:15:36;;;;;;;2.45;1.38;;;14.70;70.20;;;;;;5090729;28;20058;-83
2021/03/28 12:18:24;;;;;;;0.93;0.93;;;14.80;70.40;;;;;;5090234;28;20024;-82
2021/03/28 12:20:59;;;;;;;4.63;1.70;;;14.80;70.40;;;;;;5071420;28;20032;-79
2021/03/28 12:23:27;;;;;;;;;;;14.80;70.30;;;;;;5080532;28;20028;-83
2021/03/28 12:26:18;;;;;;;2.17;1.40;;;14.80;70.20;;;;;;5110463;28;19957;-81
2021/03/28 12:28:49;;;;;;;2.35;1.45;;;14.80;70.30;;;;;;5086798;28;20036;-83
2021/03/28 12:31:36;;;;;;;1.98;1.33;;;14.80;70.10;;;;;;5094548;28;20091;-82
2021/03/28 12:34:05;;;;;;;2.78;1.38;;;14.90;70.40;;;;;;5084023;28;20081;-83
2021/03/28 12:36:54;;;;;;;2.08;1.30;;;14.90;70.30;;;;;;5094157;28;20024;-83
2021/03/28 12:39:32;;;;;;;1.40;1.27;;;14.90;70.30;;;;;;5094613;28;20023;-83
2021/03/28 12:42:04;;;;;;;1.95;1.30;;;14.90;70.20;;;;;;5082241;28;20123;-82
2021/03/28 12:44:40;;;;;;;2.78;1.27;;;15.00;70.20;;;;;;5077411;28;20028;-82
2021/03/28 12:47:28;;;;;;;2.40;1.27;;;15.00;70.20;;;;;;5095382;28;20291;-82
2021/03/28 12:50:26;;;;;;;3.00;1.35;;;15.00;70.20;;;;;;5092180;28;20050;-81
2021/03/28 12:52:54;;;;;;;3.45;1.30;;;15.00;70.10;;;;;;5093627;28;20023;-80
2021/03/28 12:55:29;;;;;;;2.00;1.38;;;15.00;70.00;;;;;;5089695;28;20376;-79
2021/03/28 12:58:11;;;;;;;;;;;15.00;70.10;;;;;;5099090;28;20039;-80
2021/03/28 13:00:57;;;;;;;2.65;1.20;;;15.00;70.10;;;;;;5128731;27;19912;-81
2021/03/28 13:03:42;;;;;;;2.83;1.48;;;15.00;69.90;;;;;;5093657;28;20035;-79
2021/03/28 13:06:17;;;;;;;3.33;1.52;;;15.00;69.90;;;;;;5077125;28;20666;-80
2021/03/28 13:08:46;;;;;;;;;;;15.00;69.80;;;;;;5072700;28;20043;-79
2021/03/28 13:11:13;;;;;;;3.28;1.40;;;15.00;69.90;;;;;;5092208;28;19912;-81
2021/03/28 13:13:45;;;;;;;3.75;1.75;;;15.10;69.80;;;;;;5076914;28;20028;-79
2021/03/28 13:16:29;;;;;;;4.47;1.60;;;15.00;69.80;;;;;;5092974;28;20464;-79
2021/03/28 13:19:00;;;;;;;2.90;1.50;;;15.10;70.00;;;;;;5076572;28;20036;-80
2021/03/28 13:21:35;;;;;;;2.08;1.27;;;15.10;69.90;;;;;;5059828;28;20028;-79
2021/03/28 13:24:04;;;;;;;3.40;1.60;;;15.00;69.80;;;;;;5093000;28;20028;-79
2021/03/28 13:26:30;;;;;;;2.22;1.50;;;15.10;69.80;;;;;;5076293;28;20111;-79
2021/03/28 13:29:01;;;;;;;3.42;1.50;;;15.10;69.70;;;;;;5092381;28;20074;-80
2021/03/28 13:31:35;;;;;;;3.15;1.60;;;15.10;69.70;;;;;;5092862;28;20032;-79
2021/03/28 13:34:23;;;;;;;2.67;1.60;;;15.10;69.60;;;;;;5093102;28;20127;-80
2021/03/28 13:37:04;;;;;;;3.20;1.50;;;15.10;69.70;;;;;;5096558;28;20031;-79
2021/03/28 13:39:34;;;;;;;1.67;1.27;;;15.10;69.60;;;;;;5097545;28;20032;-80
2021/03/28 13:42:13;;;;;;;2.55;1.70;;;15.10;69.60;;;;;;5092409;28;20391;-79
2021/03/28 13:45:19;;;;;;;1.95;1.38;;;15.10;69.60;;;;;;5093052;28;20032;-78
2021/03/28 13:47:47;;;;;;;2.22;1.40;;;15.10;69.60;;;;;;5112786;27;20094;-79
2021/03/28 13:50:31;;;;;;;2.13;1.30;;;15.10;69.50;;;;;;5092899;28;20051;-78
2021/03/28 13:52:59;;;;;;;2.83;1.42;;;15.10;69.60;;;;;;5101451;28;20020;-79
2021/03/28 13:55:37;;;;;;;2.63;1.60;;;15.10;69.50;;;;;;5072877;28;20035;-80
2021/03/28 13:58:31;;;;;;;2.50;1.58;;;15.20;69.60;;;;;;5086236;28;20032;-79
2021/03/28 14:01:12;;;;;;;2.75;1.50;;;15.10;69.60;;;;;;5090965;28;20066;-78
2021/03/28 14:03:41;;;;;;;1.90;1.48;;;15.20;69.50;;;;;;5092886;28;20107;-78
2021/03/28 14:06:24;;;;;;;3.78;1.77;;;15.10;69.50;;;;;;5091928;28;20020;-79
2021/03/28 14:08:54;;;;;;;2.70;1.50;;;15.20;69.50;;;;;;5070115;28;20028;-78
2021/03/28 14:11:35;;;;;;;3.05;1.55;;;15.20;69.50;;;;;;5090511;28;20020;-79
2021/03/28 14:14:05;;;;;;;3.17;1.35;;;15.20;69.50;;;;;;5093713;28;20182;-80
2021/03/28 14:16:40;;;;;;;2.08;1.42;;;15.10;69.40;;;;;;5093941;28;20107;-79
2021/03/28 14:19:12;;;;;;;2.97;1.75;;;15.10;69.40;;;;;;5074780;28;20077;-79
2021/03/28 14:21:40;;;;;;;3.28;1.70;;;15.20;69.40;;;;;;5093794;28;20024;-80
2021/03/28 14:24:12;;;;;;;3.53;1.70;;;15.20;69.30;;;;;;5097181;28;20039;-80